Time;durP1;ratioP1;P1;durP2;ratioP2;P2;SDS_P1;SDS_P2;PMS_P1;PMS_P2;Temp;Humidity;BMP_temperature;BMP_pressure;BME280_temperature;BME280_humidity;BME280_pressure;Samples;Min_cycle;Max_cycle;Signal;HPM_P1;HPM_P2
2021/04/25 00:00:47;;;;;;;14.25;4.10;;;7.90;78.40;;;;;;5029799;28;20049;-72
2021/04/25 00:03:13;;;;;;;12.75;3.60;;;7.80;78.90;;;;;;5029487;28;20037;-72
2021/04/25 00:05:38;;;;;;;13.25;3.80;;;7.80;79.00;;;;;;5030462;28;20094;-73
2021/04/25 00:08:04;;;;;;;12.48;3.90;;;8.00;78.60;;;;;;5032213;28;20030;-72
2021/04/25 00:10:30;;;;;;;11.95;3.50;;;7.60;80.00;;;;;;5030715;28;20048;-73
2021/04/25 00:12:55;;;;;;;12.75;4.25;;;7.50;80.40;;;;;;5030434;28;20124;-72
2021/04/25 00:15:23;;;;;;;16.00;3.53;;;7.40;81.30;;;;;;5029428;28;20499;-72
2021/04/25 00:17:49;;;;;;;10.00;3.58;;;7.60;81.10;;;;;;5030840;28;20095;-73
2021/04/25 00:20:16;;;;;;;15.90;4.03;;;7.40;81.70;;;;;;5030206;28;20022;-72
2021/04/25 00:22:43;;;;;;;11.50;3.58;;;7.50;82.00;;;;;;5032090;28;20109;-73
2021/04/25 00:25:10;;;;;;;9.35;3.15;;;7.30;82.70;;;;;;5030309;28;20058;-72
2021/04/25 00:27:36;;;;;;;12.45;3.95;;;7.50;82.40;;;;;;5030310;28;20052;-72
2021/04/25 00:30:03;;;;;;;17.05;3.72;;;7.50;82.40;;;;;;5029051;28;20034;-72
2021/04/25 00:32:28;;;;;;;12.00;3.67;;;7.40;82.20;;;;;;5029899;28;20428;-72
2021/04/25 00:34:56;;;;;;;12.57;3.15;;;7.40;82.20;;;;;;5030528;28;20048;-73
2021/04/25 00:37:22;;;;;;;14.15;4.13;;;7.50;82.20;;;;;;5030350;28;20392;-73
2021/04/25 00:39:47;;;;;;;11.88;3.63;;;7.50;82.00;;;;;;5028942;28;20053;-72
2021/04/25 00:42:15;;;;;;;15.00;4.75;;;7.50;82.00;;;;;;5029994;28;20033;-72
2021/04/25 00:44:45;;;;;;;12.93;3.22;;;7.40;82.20;;;;;;5029666;28;20466;-72
2021/04/25 00:47:11;;;;;;;14.52;4.05;;;7.40;82.60;;;;;;5029939;28;20037;-73
2021/04/25 00:49:37;;;;;;;10.90;3.92;;;7.30;83.00;;;;;;5031533;28;20022;-72
2021/04/25 00:52:03;;;;;;;10.93;3.22;;;7.30;83.40;;;;;;5029781;28;20111;-72
2021/04/25 00:54:30;;;;;;;9.27;3.60;;;7.30;83.10;;;;;;5030064;28;20576;-73
2021/04/25 00:56:56;;;;;;;13.00;3.67;;;7.30;83.30;;;;;;5029645;28;20500;-72
2021/04/25 00:59:22;;;;;;;11.50;3.75;;;7.20;83.30;;;;;;5029945;28;20032;-72
2021/04/25 01:01:47;;;;;;;16.50;3.92;;;7.30;83.00;;;;;;5031264;28;20021;-73
2021/04/25 01:04:13;;;;;;;11.85;3.03;;;7.40;82.70;;;;;;5028437;28;20033;-72
2021/04/25 01:06:38;;;;;;;10.55;3.45;;;7.30;82.80;;;;;;5029469;28;20470;-73
2021/04/25 01:09:05;;;;;;;17.35;4.22;;;7.20;83.20;;;;;;5029329;28;20523;-72
2021/04/25 01:11:30;;;;;;;8.43;3.00;;;7.10;83.50;;;;;;5029444;28;20052;-72
2021/04/25 01:13:56;;;;;;;10.65;3.40;;;6.90;84.40;;;;;;5030948;28;20044;-72
2021/04/25 01:16:22;;;;;;;9.32;3.13;;;6.90;84.90;;;;;;5029166;28;20348;-72
2021/04/25 01:18:47;;;;;;;12.40;3.13;;;7.00;84.60;;;;;;5028241;28;20474;-73
2021/04/25 01:21:13;;;;;;;16.70;3.40;;;7.00;84.40;;;;;;5029597;28;20037;-73
2021/04/25 01:23:39;;;;;;;18.13;3.17;;;7.00;84.30;;;;;;5029094;28;20052;-72
2021/04/25 01:26:04;;;;;;;10.25;3.30;;;7.10;84.10;;;;;;5030789;28;20029;-72
2021/04/25 01:28:31;;;;;;;10.02;3.08;;;6.90;84.20;;;;;;5028143;28;20090;-72
2021/04/25 01:30:57;;;;;;;11.65;3.35;;;6.90;84.60;;;;;;5029225;28;20029;-72
2021/04/25 01:33:24;;;;;;;9.88;3.10;;;7.00;84.70;;;;;;5028800;28;20088;-72
2021/04/25 01:35:52;;;;;;;9.07;3.30;;;6.80;84.80;;;;;;5027275;28;20372;-73
2021/04/25 01:38:18;;;;;;;16.00;3.08;;;6.90;84.60;;;;;;5027940;28;20022;-72
2021/04/25 01:40:43;;;;;;;14.15;3.78;;;6.90;84.60;;;;;;5030427;28;20045;-72
2021/04/25 01:43:11;;;;;;;8.30;2.45;;;6.90;84.30;;;;;;5028988;28;20033;-72
2021/04/25 01:45:38;;;;;;;9.27;2.93;;;6.80;84.40;;;;;;5028493;28;20129;-73
2021/04/25 01:48:06;;;;;;;9.73;3.10;;;6.80;85.10;;;;;;5027404;28;20040;-72
2021/04/25 01:50:32;;;;;;;11.82;3.55;;;6.70;85.40;;;;;;5028873;28;20025;-73
2021/04/25 01:52:59;;;;;;;7.38;3.28;;;6.80;84.70;;;;;;5030328;28;20435;-72
2021/04/25 01:55:27;;;;;;;13.02;2.65;;;6.90;84.50;;;;;;5028706;28;20147;-72
2021/04/25 01:57:53;;;;;;;12.30;2.97;;;6.80;84.40;;;;;;5028774;28;20048;-72
2021/04/25 02:00:54;;;;;;;14.98;2.88;;;6.80;85.00;;;;;;5028903;28;20096;-73
2021/04/25 02:03:20;;;;;;;8.93;2.95;;;6.70;84.60;;;;;;5028382;28;20045;-72
2021/04/25 02:05:45;;;;;;;9.60;2.95;;;6.80;84.60;;;;;;5028739;28;20045;-72
2021/04/25 02:08:13;;;;;;;7.53;2.63;;;6.80;84.90;;;;;;5028692;28;20470;-71
2021/04/25 02:10:39;;;;;;;7.88;2.95;;;6.70;85.00;;;;;;5029401;28;20025;-72
2021/04/25 02:13:06;;;;;;;7.90;2.63;;;6.50;85.80;;;;;;5028804;28;20049;-72
2021/04/25 02:15:31;;;;;;;12.35;3.13;;;6.40;86.90;;;;;;5028528;28;20344;-73
2021/04/25 02:17:57;;;;;;;11.65;3.38;;;6.50;86.10;;;;;;5028767;28;20037;-72
2021/04/25 02:20:23;;;;;;;7.53;2.40;;;6.50;85.70;;;;;;5028505;28;20022;-73
2021/04/25 02:22:50;;;;;;;8.93;2.67;;;6.50;85.80;;;;;;5030030;28;20021;-74
2021/04/25 02:25:20;;;;;;;10.07;2.95;;;6.50;86.10;;;;;;5027279;28;20049;-72
2021/04/25 02:27:46;;;;;;;8.32;2.88;;;6.60;85.70;;;;;;5028470;28;20045;-73
2021/04/25 02:30:19;;;;;;;10.50;2.83;;;6.60;86.00;;;;;;5028404;28;20083;-73
2021/04/25 02:32:45;;;;;;;9.27;2.75;;;6.60;85.60;;;;;;5027487;28;20411;-73
2021/04/25 02:35:13;;;;;;;10.80;3.42;;;6.70;85.40;;;;;;5028539;28;20459;-73
2021/04/25 02:37:41;;;;;;;10.85;2.72;;;6.60;85.20;;;;;;5029104;28;20030;-72
2021/04/25 02:40:13;;;;;;;12.13;3.15;;;6.60;85.20;;;;;;5028602;28;20040;-73
2021/04/25 02:42:39;;;;;;;13.98;3.30;;;6.50;85.50;;;;;;5029001;28;20041;-72
2021/04/25 02:45:06;;;;;;;13.00;3.30;;;6.30;86.80;;;;;;5028810;28;20293;-72
2021/04/25 02:47:32;;;;;;;11.88;2.50;;;6.30;86.70;;;;;;5028737;28;20451;-73
2021/04/25 02:49:57;;;;;;;11.00;3.22;;;6.40;86.50;;;;;;5030213;28;20031;-73
2021/04/25 02:52:26;;;;;;;15.35;3.65;;;6.40;86.90;;;;;;5028562;28;20650;-72
2021/04/25 02:54:54;;;;;;;;;;;6.30;87.50;;;;;;5029061;28;20040;-73
2021/04/25 02:57:21;;;;;;;9.93;3.30;;;6.30;87.10;;;;;;5032129;28;19909;-73
2021/04/25 02:59:47;;;;;;;7.57;3.05;;;6.20;87.40;;;;;;5031985;28;20487;-72
2021/04/25 03:02:13;;;;;;;16.52;3.38;;;6.20;87.30;;;;;;5031755;28;20059;-72
2021/04/25 03:04:39;;;;;;;9.93;2.85;;;6.20;87.50;;;;;;5033555;28;20466;-73
2021/04/25 03:07:04;;;;;;;12.25;3.47;;;6.10;88.00;;;;;;5032008;28;20394;-73
2021/04/25 03:09:30;;;;;;;13.95;3.15;;;6.10;88.40;;;;;;5031917;28;20067;-72
2021/04/25 03:11:56;;;;;;;11.48;2.92;;;6.10;88.10;;;;;;5031930;28;20120;-72
2021/04/25 03:14:21;;;;;;;8.30;2.60;;;6.20;88.00;;;;;;5031836;28;20374;-72
2021/04/25 03:16:47;;;;;;;8.02;2.80;;;6.30;87.70;;;;;;5033342;28;20075;-73
2021/04/25 03:19:13;;;;;;;12.27;2.85;;;6.20;87.60;;;;;;5030425;28;20100;-72
2021/04/25 03:21:38;;;;;;;7.78;2.92;;;6.10;88.40;;;;;;5031974;28;20041;-73
2021/04/25 03:24:05;;;;;;;14.32;3.65;;;6.10;88.40;;;;;;5031303;28;20430;-73
2021/04/25 03:26:30;;;;;;;13.32;3.45;;;6.10;88.30;;;;;;5031225;28;20050;-72
2021/04/25 03:28:56;;;;;;;5.45;2.35;;;6.10;89.10;;;;;;5033069;28;20140;-72
2021/04/25 03:31:22;;;;;;;8.73;2.50;;;6.00;88.60;;;;;;5031176;28;20033;-71
2021/04/25 03:33:47;;;;;;;15.73;3.33;;;6.10;88.30;;;;;;5031209;28;20104;-72
2021/04/25 03:36:13;;;;;;;5.30;2.40;;;6.20;88.50;;;;;;5031581;28;20116;-72
2021/04/25 03:38:38;;;;;;;8.77;3.05;;;6.20;88.00;;;;;;5031423;28;20048;-72
2021/04/25 03:41:04;;;;;;;14.63;4.03;;;6.20;87.60;;;;;;5032742;28;20113;-72
2021/04/25 03:43:30;;;;;;;14.13;3.15;;;6.20;88.00;;;;;;5031265;28;20025;-71
2021/04/25 03:45:59;;;;;;;13.35;3.35;;;6.10;88.20;;;;;;5031312;28;20041;-72
2021/04/25 03:48:24;;;;;;;11.10;2.60;;;6.20;88.20;;;;;;5031117;28;20034;-71
2021/04/25 03:50:50;;;;;;;12.02;3.65;;;6.20;88.00;;;;;;5029770;28;20048;-73
2021/04/25 03:53:15;;;;;;;11.88;3.22;;;6.10;88.10;;;;;;5030774;28;20083;-73
2021/04/25 03:55:41;;;;;;;16.17;3.20;;;6.00;88.50;;;;;;5032469;28;20443;-72
2021/04/25 03:58:06;;;;;;;13.02;3.25;;;6.20;88.20;;;;;;5031013;28;20029;-73
2021/04/25 04:00:32;;;;;;;13.40;3.15;;;6.20;87.90;;;;;;5030736;28;20048;-72
2021/04/25 04:02:58;;;;;;;15.65;3.13;;;6.10;88.40;;;;;;5030986;28;20041;-72
2021/04/25 04:05:24;;;;;;;11.93;3.28;;;6.20;88.00;;;;;;5029312;28;20420;-72
2021/04/25 04:07:50;;;;;;;8.82;3.40;;;6.20;88.10;;;;;;5031563;28;20312;-72
2021/04/25 04:10:16;;;;;;;10.55;3.00;;;6.10;88.40;;;;;;5030832;28;20120;-74
2021/04/25 04:12:41;;;;;;;9.68;2.88;;;6.10;88.60;;;;;;5030468;28;20083;-73
2021/04/25 04:15:08;;;;;;;7.75;2.80;;;6.00;88.90;;;;;;5030570;28;20186;-72
2021/04/25 04:17:34;;;;;;;7.80;2.75;;;6.00;88.90;;;;;;5030558;28;20034;-73
2021/04/25 04:19:59;;;;;;;11.13;3.17;;;6.00;88.90;;;;;;5031081;28;20031;-72
2021/04/25 04:22:26;;;;;;;14.00;3.45;;;6.00;89.10;;;;;;5030382;28;20140;-73
2021/04/25 04:24:52;;;;;;;12.38;3.45;;;6.10;89.10;;;;;;5030310;28;20049;-72
2021/04/25 04:27:17;;;;;;;13.88;2.80;;;6.00;89.10;;;;;;5030141;28;20045;-72
2021/04/25 04:29:43;;;;;;;9.00;3.08;;;6.00;89.30;;;;;;5030440;28;20037;-73
2021/04/25 04:32:08;;;;;;;13.45;3.58;;;6.10;89.70;;;;;;5032207;28;20025;-72
2021/04/25 04:34:36;;;;;;;14.63;3.50;;;6.10;89.30;;;;;;5030436;28;20034;-73
2021/04/25 04:37:02;;;;;;;7.93;2.63;;;6.20;88.90;;;;;;5029908;28;20431;-73
2021/04/25 04:39:28;;;;;;;13.35;3.30;;;6.20;89.20;;;;;;5030065;28;20061;-72
2021/04/25 04:41:54;;;;;;;9.27;2.88;;;6.30;89.00;;;;;;5029889;28;20320;-72
2021/04/25 04:44:20;;;;;;;10.43;3.33;;;6.30;89.00;;;;;;5030109;28;20040;-73
2021/04/25 04:46:45;;;;;;;9.15;3.30;;;6.30;89.20;;;;;;5031259;28;20026;-73
2021/04/25 04:49:11;;;;;;;10.85;3.67;;;6.30;89.00;;;;;;5030061;28;20041;-73
2021/04/25 04:51:37;;;;;;;14.25;3.40;;;6.20;89.50;;;;;;5028994;28;20037;-73
2021/04/25 04:54:03;;;;;;;11.13;4.15;;;6.20;89.70;;;;;;5029878;28;20037;-74
2021/04/25 04:56:28;;;;;;;14.77;3.50;;;6.30;89.90;;;;;;5029654;28;20029;-72
2021/04/25 04:58:54;;;;;;;9.98;3.72;;;6.40;89.10;;;;;;5030235;28;20029;-72
2021/04/25 05:01:20;;;;;;;14.65;3.80;;;6.40;89.50;;;;;;5028746;28;20049;-74
2021/04/25 05:03:45;;;;;;;11.73;3.58;;;6.50;89.30;;;;;;5029672;28;20037;-72
2021/04/25 05:06:11;;;;;;;9.90;3.42;;;6.50;89.30;;;;;;5028540;28;20041;-73
2021/04/25 05:08:36;;;;;;;10.73;3.75;;;6.60;88.90;;;;;;5029637;28;20471;-73
2021/04/25 05:11:02;;;;;;;11.57;3.08;;;6.60;89.00;;;;;;5031054;28;20116;-73
2021/04/25 05:13:30;;;;;;;18.45;3.97;;;6.70;88.70;;;;;;5029359;28;20124;-72
2021/04/25 05:15:56;;;;;;;11.80;3.63;;;6.80;88.30;;;;;;5029489;28;20366;-73
2021/04/25 05:18:21;;;;;;;9.13;3.53;;;6.90;88.00;;;;;;5029072;28;20029;-71
2021/04/25 05:20:47;;;;;;;7.85;2.80;;;6.90;88.10;;;;;;5024209;28;20105;-72
2021/04/25 05:23:13;;;;;;;11.57;3.65;;;6.90;86.90;;;;;;5010246;28;20061;-72
2021/04/25 05:25:38;;;;;;;9.57;4.43;;;6.80;87.00;;;;;;5031110;28;20040;-72
2021/04/25 05:28:04;;;;;;;10.35;3.60;;;6.90;87.40;;;;;;5029263;28;20034;-72
2021/04/25 05:30:30;;;;;;;12.98;3.85;;;7.00;86.80;;;;;;5024881;28;20034;-72
2021/04/25 05:32:55;;;;;;;10.40;3.58;;;6.90;86.10;;;;;;5014316;28;20030;-72
2021/04/25 05:35:21;;;;;;;16.30;3.47;;;6.80;86.30;;;;;;5029385;28;20153;-72
2021/04/25 05:37:46;;;;;;;18.17;3.70;;;7.10;86.00;;;;;;5030691;28;20037;-72
2021/04/25 05:40:13;;;;;;;11.55;3.20;;;6.90;85.70;;;;;;5029102;28;20037;-73
2021/04/25 05:42:39;;;;;;;13.00;4.13;;;6.80;85.70;;;;;;5029378;28;20037;-72
2021/04/25 05:45:06;;;;;;;17.08;3.35;;;6.90;85.60;;;;;;5028997;28;20053;-73
2021/04/25 05:47:32;;;;;;;13.00;3.50;;;7.20;85.10;;;;;;5028740;28;20033;-73
2021/04/25 05:49:58;;;;;;;13.25;3.67;;;7.20;84.60;;;;;;5030863;28;20049;-71
2021/04/25 05:52:24;;;;;;;13.13;3.33;;;7.10;84.60;;;;;;5028272;28;20033;-73
2021/04/25 05:54:49;;;;;;;15.32;3.03;;;7.20;84.10;;;;;;5028203;28;20038;-72
2021/04/25 05:57:15;;;;;;;9.68;2.90;;;7.20;84.10;;;;;;5027962;28;20359;-73
2021/04/25 05:59:43;;;;;;;12.98;2.55;;;7.10;83.50;;;;;;5029035;28;20412;-73
2021/04/25 06:02:09;;;;;;;11.07;2.42;;;7.20;83.20;;;;;;5030126;28;20352;-73
2021/04/25 06:04:35;;;;;;;5.78;1.92;;;7.20;82.80;;;;;;5028981;28;20025;-72
2021/04/25 06:07:00;;;;;;;12.45;2.10;;;7.10;82.40;;;;;;5028753;28;20049;-73
2021/04/25 06:09:27;;;;;;;8.63;2.15;;;7.30;82.40;;;;;;5028986;28;20029;-72
2021/04/25 06:11:55;;;;;;;8.93;2.05;;;7.40;81.90;;;;;;5027537;28;20502;-73
2021/04/25 06:14:20;;;;;;;11.77;1.98;;;7.60;81.30;;;;;;5028470;28;20448;-73
2021/04/25 06:16:46;;;;;;;15.50;2.17;;;7.70;81.10;;;;;;5030325;28;20056;-73
2021/04/25 06:19:12;;;;;;;6.60;1.98;;;7.70;80.60;;;;;;5028647;28;20073;-73
2021/04/25 06:21:38;;;;;;;8.65;1.70;;;7.90;80.50;;;;;;5027663;28;20053;-72
2021/04/25 06:24:05;;;;;;;7.72;2.20;;;7.90;79.70;;;;;;5027462;28;20048;-73
2021/04/25 06:26:30;;;;;;;16.77;2.40;;;7.90;79.40;;;;;;5028352;28;20133;-72
2021/04/25 06:29:00;;;;;;;6.68;1.73;;;7.90;78.80;;;;;;5030224;28;20286;-72
2021/04/25 06:31:25;;;;;;;9.63;1.73;;;8.10;78.90;;;;;;5031455;28;20040;-73
2021/04/25 06:33:51;;;;;;;8.32;1.90;;;8.10;78.10;;;;;;5032946;28;20136;-73
2021/04/25 06:36:17;;;;;;;9.32;1.65;;;8.10;78.00;;;;;;5032353;28;20117;-72
2021/04/25 06:38:42;;;;;;;7.22;2.03;;;8.00;77.90;;;;;;5032391;28;20478;-71
2021/04/25 06:41:08;;;;;;;6.97;1.48;;;8.10;77.60;;;;;;5033809;28;20057;-73
2021/04/25 06:43:33;;;;;;;8.48;1.67;;;8.20;77.40;;;;;;5032282;28;20037;-72
2021/04/25 06:46:00;;;;;;;6.07;1.27;;;8.10;77.00;;;;;;5032461;28;20037;-73
2021/04/25 06:48:26;;;;;;;8.20;2.30;;;8.20;77.20;;;;;;5032192;28;20065;-73
2021/04/25 06:50:51;;;;;;;12.00;2.00;;;8.30;76.90;;;;;;5032107;28;20068;-72
2021/04/25 06:53:17;;;;;;;7.97;1.55;;;8.40;76.70;;;;;;5032217;28;20025;-73
2021/04/25 06:55:43;;;;;;;5.53;1.42;;;8.20;76.70;;;;;;5033989;28;20052;-74
2021/04/25 06:58:09;;;;;;;10.25;1.27;;;8.30;76.40;;;;;;5032291;28;20037;-72
2021/04/25 07:00:34;;;;;;;8.13;1.60;;;8.30;76.30;;;;;;5032004;28;20106;-72
2021/04/25 07:03:00;;;;;;;10.82;1.85;;;8.30;76.40;;;;;;5031898;28;20776;-73
2021/04/25 07:05:26;;;;;;;8.10;2.13;;;8.40;76.40;;;;;;5031932;28;20348;-74
2021/04/25 07:07:53;;;;;;;9.38;1.58;;;8.40;76.20;;;;;;5033478;28;20026;-72
2021/04/25 07:10:19;;;;;;;10.70;2.25;;;8.50;75.70;;;;;;5031961;28;20406;-73
2021/04/25 07:12:45;;;;;;;11.10;1.98;;;8.60;75.40;;;;;;5031673;28;20037;-73
2021/04/25 07:15:12;;;;;;;7.57;1.75;;;8.30;75.20;;;;;;5031235;28;20033;-71
2021/04/25 07:17:38;;;;;;;7.03;1.40;;;8.50;75.60;;;;;;5031258;28;20486;-72
2021/04/25 07:20:09;;;;;;;13.65;1.45;;;8.50;75.30;;;;;;5033113;28;20033;-72
2021/04/25 07:22:35;;;;;;;10.02;1.48;;;8.50;75.30;;;;;;5030513;28;20525;-71
2021/04/25 07:25:02;;;;;;;4.40;1.10;;;8.60;75.20;;;;;;5031123;28;20053;-72
2021/04/25 07:27:27;;;;;;;3.70;1.08;;;8.80;74.80;;;;;;5031426;28;20483;-72
2021/04/25 07:29:53;;;;;;;11.77;1.70;;;8.90;74.10;;;;;;5030192;28;20071;-71
2021/04/25 07:32:18;;;;;;;8.38;1.50;;;8.80;73.30;;;;;;5031495;28;20026;-72
2021/04/25 07:34:46;;;;;;;9.60;1.35;;;8.80;73.40;;;;;;5032976;28;20016;-72
2021/04/25 07:37:12;;;;;;;6.13;1.10;;;8.70;72.70;;;;;;5031591;28;20100;-72
2021/04/25 07:39:38;;;;;;;14.65;2.22;;;8.70;73.30;;;;;;5031202;28;20038;-72
2021/04/25 07:42:05;;;;;;;6.03;1.50;;;9.00;73.10;;;;;;5030380;28;20037;-74
2021/04/25 07:44:31;;;;;;;7.72;1.30;;;9.10;72.70;;;;;;5031105;28;20040;-71
2021/04/25 07:46:56;;;;;;;6.93;1.23;;;9.20;71.90;;;;;;5032465;28;20026;-73
2021/04/25 07:49:22;;;;;;;9.18;1.40;;;9.00;71.10;;;;;;5031013;28;20030;-72
2021/04/25 07:51:48;;;;;;;7.40;1.60;;;9.10;71.70;;;;;;5031192;28;20072;-72
2021/04/25 07:54:14;;;;;;;6.60;1.60;;;9.30;71.30;;;;;;5030958;28;20041;-72
2021/04/25 07:56:40;;;;;;;5.38;1.30;;;9.40;71.20;;;;;;5030822;28;20033;-72
2021/04/25 07:59:06;;;;;;;12.77;1.92;;;9.50;70.70;;;;;;5032381;28;20029;-73
2021/04/25 08:01:31;;;;;;;10.32;1.77;;;9.50;69.70;;;;;;5029753;28;20069;-72
2021/04/25 08:03:57;;;;;;;5.22;1.55;;;9.40;69.70;;;;;;5030322;28;20159;-72
2021/04/25 08:06:26;;;;;;;5.30;1.40;;;9.70;69.80;;;;;;5030250;28;20061;-72
2021/04/25 08:08:53;;;;;;;10.88;1.67;;;10.20;68.20;;;;;;5029265;28;20079;-72
2021/04/25 08:11:19;;;;;;;7.33;1.53;;;10.90;67.70;;;;;;5030691;28;20040;-73
2021/04/25 08:13:45;;;;;;;8.20;1.38;;;11.40;66.10;;;;;;5032319;28;20033;-73
2021/04/25 08:16:12;;;;;;;13.85;2.70;;;11.60;63.70;;;;;;5031061;28;20258;-72
2021/04/25 08:18:38;;;;;;;7.70;1.90;;;11.30;62.00;;;;;;5029313;28;20068;-72
2021/04/25 08:21:05;;;;;;;6.32;1.65;;;11.30;62.90;;;;;;5030432;28;20720;-73
2021/04/25 08:23:30;;;;;;;7.03;1.77;;;11.40;63.10;;;;;;5029962;28;20056;-74
2021/04/25 08:25:56;;;;;;;9.27;1.45;;;11.80;63.20;;;;;;5031909;28;20029;-73
2021/04/25 08:28:23;;;;;;;3.17;1.00;;;12.20;62.00;;;;;;5029933;28;20034;-72
2021/04/25 08:30:49;;;;;;;13.38;1.70;;;12.60;60.60;;;;;;5030300;28;20043;-73
2021/04/25 08:33:15;;;;;;;6.82;1.30;;;12.80;60.20;;;;;;5030192;28;20097;-72
2021/04/25 08:35:40;;;;;;;7.38;1.33;;;13.10;59.30;;;;;;5029750;28;20029;-72
2021/04/25 08:38:06;;;;;;;6.13;1.13;;;13.60;57.50;;;;;;5031771;28;20045;-73
2021/04/25 08:40:32;;;;;;;8.38;1.65;;;14.40;56.90;;;;;;5029925;28;20034;-73
2021/04/25 08:42:59;;;;;;;4.68;1.48;;;15.20;54.40;;;;;;5030308;28;20030;-73
2021/04/25 08:45:25;;;;;;;7.35;1.20;;;15.70;50.40;;;;;;5029836;28;20241;-73
2021/04/25 08:47:59;;;;;;;4.60;1.15;;;16.00;49.20;;;;;;5030061;28;20026;-73
2021/04/25 08:50:30;;;;;;;7.47;1.30;;;16.70;47.70;;;;;;5029895;28;20053;-74
2021/04/25 08:52:56;;;;;;;3.92;1.02;;;17.30;46.30;;;;;;5031213;28;20100;-72
2021/04/25 08:55:22;;;;;;;4.68;1.58;;;17.00;44.80;;;;;;5030050;28;20037;-73
2021/04/25 08:57:49;;;;;;;6.55;1.63;;;16.50;44.00;;;;;;5029647;28;20116;-73
2021/04/25 09:00:15;;;;;;;7.25;1.98;;;16.40;45.20;;;;;;5029366;28;20352;-73
2021/04/25 09:02:41;;;;;;;9.32;1.55;;;15.80;44.90;;;;;;5029796;28;20042;-73
2021/04/25 09:05:07;;;;;;;6.10;2.00;;;14.90;44.30;;;;;;5031028;28;20014;-74
2021/04/25 09:07:34;;;;;;;3.92;1.73;;;14.80;45.20;;;;;;5028505;28;20037;-74
2021/04/25 09:10:07;;;;;;;3.83;1.48;;;15.30;45.00;;;;;;5029144;28;20031;-72
2021/04/25 09:12:43;;;;;;;5.80;1.58;;;15.50;44.70;;;;;;5029563;28;20366;-72
2021/04/25 09:15:11;;;;;;;5.53;1.63;;;15.80;44.00;;;;;;5029138;28;20038;-73
2021/04/25 09:17:49;;;;;;;;;;;15.70;43.70;;;;;;5030232;28;20025;-72
2021/04/25 09:20:15;;;;;;;4.20;1.67;;;15.90;43.50;;;;;;5029387;28;19905;-74
2021/04/25 09:22:51;;;;;;;4.78;1.45;;;16.40;42.30;;;;;;5030902;28;20071;-74
2021/04/25 09:25:19;;;;;;;6.30;1.63;;;16.30;42.40;;;;;;5028066;28;20049;-74
2021/04/25 09:27:47;;;;;;;5.50;1.77;;;16.30;42.80;;;;;;5028374;28;20058;-73
2021/04/25 09:30:25;;;;;;;8.50;2.05;;;16.50;42.90;;;;;;5029380;28;20038;-75
2021/04/25 09:33:05;;;;;;;7.95;1.58;;;16.40;42.40;;;;;;5029043;28;20076;-73
2021/04/25 09:35:32;;;;;;;9.68;2.17;;;16.10;42.80;;;;;;5028264;28;20030;-74
2021/04/25 09:38:08;;;;;;;7.43;1.85;;;15.60;42.20;;;;;;5030652;28;20487;-74
2021/04/25 09:40:41;;;;;;;4.95;1.58;;;14.80;42.80;;;;;;5028970;28;20038;-74
2021/04/25 09:43:10;;;;;;;11.25;2.00;;;14.90;43.30;;;;;;5029067;28;20029;-73
2021/04/25 09:45:46;;;;;;;4.60;1.65;;;14.60;43.40;;;;;;5029162;28;20049;-73
2021/04/25 09:48:35;;;;;;;6.10;1.90;;;14.50;43.60;;;;;;5028346;28;20104;-74
2021/04/25 09:51:13;;;;;;;3.42;1.80;;;13.70;44.00;;;;;;5029175;28;20056;-74
2021/04/25 09:54:02;;;;;;;6.65;2.10;;;13.90;45.70;;;;;;5029141;28;20025;-72
2021/04/25 09:56:33;;;;;;;7.00;1.90;;;15.10;44.70;;;;;;5024475;28;20061;-72
2021/04/25 09:59:07;;;;;;;3.72;1.27;;;16.00;43.40;;;;;;5030444;28;20030;-74
2021/04/25 10:01:38;;;;;;;8.93;2.40;;;17.10;42.70;;;;;;5028791;28;20076;-74
2021/04/25 10:04:25;;;;;;;6.03;1.80;;;17.60;41.50;;;;;;5028832;28;20155;-73
2021/04/25 10:06:52;;;;;;;4.43;1.95;;;17.50;40.70;;;;;;5032310;28;20038;-74
2021/04/25 10:09:21;;;;;;;8.60;2.00;;;17.20;40.80;;;;;;5031867;28;20099;-74
2021/04/25 10:11:52;;;;;;;6.78;2.28;;;16.80;41.00;;;;;;5032748;28;20037;-74
2021/04/25 10:14:18;;;;;;;7.15;2.00;;;17.00;41.30;;;;;;5032729;28;20163;-73
2021/04/25 10:16:44;;;;;;;5.18;1.90;;;17.30;40.80;;;;;;5034215;28;20041;-74
2021/04/25 10:19:10;;;;;;;7.35;1.90;;;17.70;40.60;;;;;;5032687;28;20033;-74
2021/04/25 10:21:38;;;;;;;8.57;2.30;;;18.30;40.10;;;;;;5032704;28;20482;-73
2021/04/25 10:24:04;;;;;;;5.25;1.80;;;18.70;39.30;;;;;;5031285;28;20100;-72
2021/04/25 10:26:36;;;;;;;7.28;2.08;;;19.30;38.70;;;;;;5032675;28;20118;-74
2021/04/25 10:29:05;;;;;;;5.32;2.50;;;19.40;37.90;;;;;;5034147;28;20025;-74
2021/04/25 10:31:35;;;;;;;10.90;2.53;;;19.80;37.60;;;;;;5032553;28;20056;-74
2021/04/25 10:34:06;;;;;;;7.00;2.10;;;19.80;36.90;;;;;;5031393;28;20400;-72
2021/04/25 10:36:44;;;;;;;7.22;2.20;;;19.80;36.20;;;;;;5031445;28;20065;-73
2021/04/25 10:39:49;;;;;;;4.75;2.10;;;19.90;36.30;;;;;;5032449;28;20462;-73
2021/04/25 10:42:17;;;;;;;6.78;2.20;;;19.50;36.00;;;;;;5032589;28;20455;-74
2021/04/25 10:45:04;;;;;;;5.53;1.85;;;18.90;36.30;;;;;;5031142;28;20099;-74
2021/04/25 10:47:34;;;;;;;7.53;2.00;;;18.30;36.70;;;;;;5031311;28;20102;-74
2021/04/25 10:50:20;;;;;;;6.57;2.20;;;17.70;36.80;;;;;;5034311;28;20195;-73
2021/04/25 10:52:50;;;;;;;8.52;2.08;;;17.30;36.60;;;;;;5031430;28;20037;-73
2021/04/25 10:55:19;;;;;;;21.23;4.95;;;17.20;36.60;;;;;;5031302;28;20044;-73
2021/04/25 10:57:51;;;;;;;9.75;2.85;;;17.10;37.50;;;;;;5032404;28;20029;-73
2021/04/25 11:00:41;;;;;;;4.60;2.00;;;16.70;38.10;;;;;;5032072;28;20116;-74
2021/04/25 11:03:08;;;;;;;6.63;2.42;;;16.40;38.90;;;;;;5031605;28;20056;-74
2021/04/25 11:05:37;;;;;;;5.07;2.20;;;16.10;39.10;;;;;;5032125;28;20049;-73
2021/04/25 11:08:28;;;;;;;6.97;2.30;;;16.00;39.70;;;;;;5033641;28;20040;-74
2021/04/25 11:11:02;;;;;;;4.28;1.80;;;15.80;40.20;;;;;;5032180;28;20355;-73
2021/04/25 11:13:37;;;;;;;7.28;2.13;;;15.70;39.70;;;;;;5031640;28;20119;-74
2021/04/25 11:16:10;;;;;;;4.32;2.28;;;15.50;39.10;;;;;;5031604;28;20037;-74
2021/04/25 11:19:05;;;;;;;5.60;2.13;;;15.20;38.90;;;;;;5030506;28;20033;-74
2021/04/25 11:21:47;;;;;;;3.83;1.80;;;15.10;39.30;;;;;;5031412;28;20126;-73
2021/04/25 11:24:12;;;;;;;4.60;1.50;;;15.00;39.60;;;;;;5031419;28;20049;-72
2021/04/25 11:26:46;;;;;;;9.90;1.92;;;14.90;39.30;;;;;;5031341;28;20550;-72
2021/04/25 11:29:40;;;;;;;4.03;1.85;;;14.80;39.40;;;;;;5031449;28;20022;-73
2021/04/25 11:32:06;;;;;;;4.57;1.50;;;14.70;39.50;;;;;;5033078;28;20095;-73
2021/04/25 11:34:32;;;;;;;10.98;1.38;;;14.60;39.40;;;;;;5031282;28;20026;-72
2021/04/25 11:37:19;;;;;;;4.40;1.10;;;14.60;38.50;;;;;;5031205;28;20029;-74
2021/04/25 11:39:57;;;;;;;4.45;1.35;;;14.60;38.40;;;;;;5031551;28;20044;-75
2021/04/25 11:42:36;;;;;;;2.63;0.85;;;14.70;38.00;;;;;;5030978;28;20029;-73
2021/04/25 11:45:17;;;;;;;2.35;1.33;;;14.70;37.70;;;;;;5031019;28;20049;-73
2021/04/25 11:47:49;;;;;;;4.20;0.85;;;14.70;38.00;;;;;;5031241;28;20521;-72
2021/04/25 11:50:17;;;;;;;7.93;1.85;;;14.80;38.20;;;;;;5029784;28;20033;-73
2021/04/25 11:52:43;;;;;;;5.07;2.80;;;14.60;38.30;;;;;;5032646;28;20064;-73
2021/04/25 11:55:17;;;;;;;7.13;3.20;;;14.70;37.70;;;;;;5030879;28;20033;-74
2021/04/25 11:57:49;;;;;;;2.78;1.30;;;14.70;37.30;;;;;;5029891;28;20041;-72
2021/04/25 12:00:25;;;;;;;4.43;1.00;;;14.60;37.70;;;;;;5030911;28;20064;-73
2021/04/25 12:02:52;;;;;;;4.75;1.95;;;14.60;38.20;;;;;;5030990;28;20044;-73
2021/04/25 12:05:21;;;;;;;2.50;0.90;;;14.70;37.70;;;;;;5031109;28;20022;-74
2021/04/25 12:08:02;;;;;;;2.92;1.00;;;14.70;37.80;;;;;;5032696;28;20447;-74
2021/04/25 12:10:35;;;;;;;3.38;1.40;;;14.60;37.90;;;;;;5030398;28;20096;-74
2021/04/25 12:13:19;;;;;;;2.20;0.98;;;14.50;38.20;;;;;;5028143;28;20100;-73
2021/04/25 12:15:51;;;;;;;4.72;1.70;;;14.70;38.00;;;;;;5030350;28;20113;-74
2021/04/25 12:18:22;;;;;;;2.90;0.98;;;14.80;37.50;;;;;;5029549;28;20041;-74
2021/04/25 12:20:50;;;;;;;3.25;1.00;;;14.70;36.50;;;;;;5030665;28;20435;-74
2021/04/25 12:23:24;;;;;;;5.53;1.00;;;14.60;36.50;;;;;;5029198;28;20034;-74
2021/04/25 12:25:51;;;;;;;3.63;1.15;;;14.40;36.60;;;;;;5031902;28;20420;-74
2021/04/25 12:28:34;;;;;;;2.65;0.98;;;14.50;37.30;;;;;;5028762;28;20379;-74
2021/04/25 12:30:59;;;;;;;4.28;1.10;;;14.50;37.20;;;;;;5029754;28;20065;-74
2021/04/25 12:33:36;;;;;;;3.15;0.98;;;14.40;36.80;;;;;;5030413;28;20065;-74
2021/04/25 12:36:04;;;;;;;2.80;1.08;;;14.30;36.80;;;;;;5030385;28;20048;-74
2021/04/25 12:38:30;;;;;;;1.42;0.80;;;14.50;37.20;;;;;;5029139;28;22357;-73
2021/04/25 12:40:56;;;;;;;6.20;1.20;;;14.50;36.60;;;;;;5031884;28;20124;-76
2021/04/25 12:43:22;;;;;;;2.92;1.17;;;14.60;36.50;;;;;;5029692;28;20146;-76
2021/04/25 12:45:48;;;;;;;3.17;0.95;;;14.70;36.40;;;;;;5029862;28;20370;-74
2021/04/25 12:48:35;;;;;;;4.63;1.05;;;14.80;36.00;;;;;;5029654;28;20047;-74
2021/04/25 12:51:14;;;;;;;5.07;0.98;;;14.80;35.80;;;;;;5030053;28;20041;-74
2021/04/25 12:53:51;;;;;;;4.72;1.00;;;14.90;36.00;;;;;;5028913;28;20033;-73
2021/04/25 12:56:19;;;;;;;2.90;1.00;;;14.80;35.20;;;;;;5029159;28;20029;-72